ブエノスアイレス/エセイサ の空港の天気 - METARとTAF

エセイサ国際空港 ( SAEZ / EZE ) - アルゼンチン ブエノスアイレス州、Ezeiza
飛行場実況気象(Metar)
観測時間10/04 10:00 ART (10/04 13:00 UTC)
風向・風速北東 8m/s
視程10km以上
天気現象
なし
気温16℃
湿度55%
気圧1019hPa
METARSAEZ 041300Z 05016KT CAVOK 16/07 Q1019 NOSIG RMK PP000
過去の天気等 Google飛行場航空写真 Wunderground天気予報

過去48時間のMETAR

飛行場予報(TAF)
発表時間: 10/04 08:00 ART (10/04 11:00 UTC)
予報対象時間: 4日9時 ART ~ 5日9時 ART
風向・風速東北東 5m/s 瞬間風速 10m/s
視程10km以上
なし
4日11時 ART ~ 4日13時 ART に徐々に
風向・風速東北東 8m/s 瞬間風速 13m/s
視程10km以上
全天の4割程度の雲 雲底高度 910m
4日18時 ART ~ 4日21時 ART に徐々に
風向・風速東北東 5m/s
視程10km以上
なし
TAF SAEZ 041100Z 0412/0512 07010G20KT CAVOK TX20/0418Z TN10/0509Z
BECMG 0414/0416 06015G25KT 9999 SCT030
BECMG 0421/0500 07010KT CAVOK